Time;durP1;ratioP1;P1;durP2;ratioP2;P2;SDS_P1;SDS_P2;PMS_P1;PMS_P2;Temp;Humidity;BMP_temperature;BMP_pressure;BME280_temperature;BME280_humidity;BME280_pressure;Samples;Min_cycle;Max_cycle;Signal;HPM_P1;HPM_P2
2022/07/02 00:01:49;;;;;;;2.10;0.80;;;;;;;12.23;100.00;97186.75;5035915;28;20037;-74
2022/07/02 00:04:19;;;;;;;3.90;0.93;;;;;;;12.16;100.00;97175.34;5037279;28;20033;-75
2022/07/02 00:06:47;;;;;;;2.17;0.90;;;;;;;12.16;100.00;97183.38;5037238;28;20045;-75
2022/07/02 00:09:13;;;;;;;2.25;0.90;;;;;;;12.13;100.00;97179.31;5035896;28;20029;-74
2022/07/02 00:11:40;;;;;;;4.00;0.75;;;;;;;12.01;100.00;97189.28;5051183;28;20167;-74
2022/07/02 00:14:06;;;;;;;3.10;0.90;;;;;;;12.03;100.00;97189.03;5035615;28;20036;-75
2022/07/02 00:16:33;;;;;;;1.98;0.88;;;;;;;12.09;100.00;97180.84;5037804;28;21431;-74
2022/07/02 00:18:59;;;;;;;3.22;0.90;;;;;;;12.23;100.00;97184.88;5041289;28;20037;-74
2022/07/02 00:21:25;;;;;;;5.57;1.20;;;;;;;12.33;100.00;97189.59;5034454;28;20095;-74
2022/07/02 00:23:51;;;;;;;4.38;0.80;;;;;;;12.29;100.00;97191.13;5036550;28;20518;-75
2022/07/02 00:26:29;;;;;;;3.47;0.88;;;;;;;12.32;100.00;97198.72;5037887;28;20033;-74
2022/07/02 00:29:06;;;;;;;3.40;1.00;;;;;;;12.32;100.00;97198.72;5033825;28;20091;-75
2022/07/02 00:31:37;;;;;;;3.10;1.20;;;;;;;12.31;100.00;97193.59;5049804;28;20033;-74
2022/07/02 00:34:04;;;;;;;3.58;0.90;;;;;;;12.15;100.00;97196.00;5051103;28;20048;-75
2022/07/02 00:36:31;;;;;;;2.35;0.90;;;;;;;12.17;100.00;97193.06;5054119;28;20028;-74
2022/07/02 00:38:58;;;;;;;4.63;0.90;;;;;;;12.07;100.00;97190.22;5035850;28;20052;-74
2022/07/02 00:41:25;;;;;;;2.72;1.02;;;;;;;12.05;100.00;97197.66;5037810;28;20029;-75
2022/07/02 00:43:51;;;;;;;2.92;1.10;;;;;;;12.10;100.00;97193.22;5015505;28;20112;-74
2022/07/02 00:46:17;;;;;;;2.75;1.00;;;;;;;12.14;100.00;97190.84;5036213;28;20037;-74
2022/07/02 00:48:43;;;;;;;4.07;1.67;;;;;;;12.13;100.00;97187.34;5036065;28;20090;-74
2022/07/02 00:51:09;;;;;;;2.75;0.93;;;;;;;12.15;100.00;97189.81;5036480;28;20067;-74
2022/07/02 00:53:35;;;;;;;5.28;1.00;;;;;;;12.07;100.00;97180.28;5037517;28;20044;-74
2022/07/02 00:56:01;;;;;;;3.13;1.30;;;;;;;12.13;100.00;97186.53;5020654;28;20512;-74
2022/07/02 00:58:30;;;;;;;3.30;1.00;;;;;;;12.13;100.00;97191.91;5036839;28;20289;-74
2022/07/02 01:00:56;;;;;;;2.60;1.00;;;;;;;11.95;100.00;97187.56;5032996;28;20046;-74
2022/07/02 01:03:22;;;;;;;2.67;1.25;;;;;;;11.83;100.00;97192.97;5031837;28;20285;-74
2022/07/02 01:05:49;;;;;;;4.13;1.00;;;;;;;11.90;100.00;97196.31;5038436;28;20516;-75
2022/07/02 01:11:01;;;;;;;2.67;0.98;;;;;;;11.98;100.00;97195.09;5034628;28;20037;-75
2022/07/02 01:13:31;;;;;;;2.53;1.20;;;;;;;12.03;100.00;97194.41;5034283;28;20029;-74
2022/07/02 01:15:56;;;;;;;2.80;0.90;;;;;;;11.96;100.00;97184.63;5033777;28;20041;-74
2022/07/02 01:18:22;;;;;;;3.75;1.00;;;;;;;11.96;100.00;97181.94;5034878;28;20033;-73
2022/07/02 01:20:47;;;;;;;3.42;1.02;;;;;;;11.97;100.00;97186.25;5031550;28;20132;-73
2022/07/02 01:23:13;;;;;;;3.58;1.00;;;;;;;11.91;100.00;97181.88;5037343;28;20028;-73
2022/07/02 01:25:38;;;;;;;3.20;1.20;;;;;;;11.80;100.00;97177.34;5037387;28;20139;-73
2022/07/02 01:28:04;;;;;;;3.03;0.93;;;;;;;11.75;100.00;97176.38;5036133;28;20035;-74
2022/07/02 01:30:29;;;;;;;3.97;1.08;;;;;;;11.65;100.00;97177.81;5037356;28;20377;-73
2022/07/02 01:32:55;;;;;;;1.90;0.82;;;;;;;11.59;100.00;97172.59;5034308;28;20061;-73
2022/07/02 01:35:21;;;;;;;2.47;0.70;;;;;;;11.50;100.00;97182.06;5034851;28;20043;-73
2022/07/02 01:37:46;;;;;;;2.83;0.90;;;;;;;11.27;100.00;97181.03;5049393;28;20025;-73
2022/07/02 01:40:12;;;;;;;2.03;0.85;;;;;;;11.20;100.00;97180.34;5033467;28;20045;-73
2022/07/02 01:42:37;;;;;;;4.30;1.30;;;;;;;11.21;100.00;97173.16;5036878;28;20032;-73
2022/07/02 01:45:04;;;;;;;1.90;0.90;;;;;;;11.24;100.00;97170.00;5033896;28;20059;-73
2022/07/02 01:47:29;;;;;;;3.17;1.20;;;;;;;11.34;100.00;97171.03;5032625;28;20159;-73
2022/07/02 01:49:55;;;;;;;2.35;1.00;;;;;;;11.41;100.00;97168.22;5032664;28;20064;-74
2022/07/02 01:52:20;;;;;;;2.50;1.13;;;;;;;11.50;100.00;97169.47;5034076;28;20504;-73
2022/07/02 01:54:46;;;;;;;2.60;1.00;;;;;;;11.44;100.00;97179.28;5049596;28;20021;-73
2022/07/02 01:57:13;;;;;;;2.75;0.77;;;;;;;11.16;100.00;97177.34;5033271;28;20539;-73
2022/07/02 01:59:38;;;;;;;2.47;0.90;;;;;;;11.03;100.00;97172.22;5036301;28;20036;-73
2022/07/02 02:02:05;;;;;;;4.10;1.35;;;;;;;10.96;100.00;97178.75;5034772;28;20039;-73
2022/07/02 02:04:31;;;;;;;3.70;1.00;;;;;;;10.88;100.00;97179.91;5035470;28;20432;-74
2022/07/02 02:06:57;;;;;;;3.17;1.13;;;;;;;10.87;100.00;97165.69;5068013;28;20367;-73
2022/07/02 02:09:22;;;;;;;3.45;1.17;;;;;;;10.73;100.00;97179.53;5065080;28;20036;-74
2022/07/02 02:11:51;;;;;;;2.58;1.10;;;;;;;10.64;100.00;97184.44;5043578;28;20112;-73
2022/07/02 02:14:16;;;;;;;3.13;1.10;;;;;;;10.66;100.00;97176.16;5037057;28;20123;-73
2022/07/02 02:16:42;;;;;;;3.15;1.10;;;;;;;10.78;100.00;97179.69;5054065;28;20041;-73
2022/07/02 02:19:07;;;;;;;3.17;1.08;;;;;;;10.70;100.00;97178.16;5035828;28;20492;-73
2022/07/02 02:21:33;;;;;;;3.97;1.10;;;;;;;10.75;100.00;97180.16;5036152;28;20039;-73
2022/07/02 02:23:59;;;;;;;3.67;1.00;;;;;;;10.65;100.00;97183.38;5031921;28;20384;-73
2022/07/02 02:26:25;;;;;;;2.63;1.10;;;;;;;10.54;100.00;97181.50;5035098;28;20041;-73
2022/07/02 02:28:52;;;;;;;3.50;1.35;;;;;;;10.49;100.00;97179.50;5035265;28;20445;-73
2022/07/02 02:31:18;;;;;;;2.85;1.13;;;;;;;10.64;100.00;97184.44;5017101;28;20055;-73
2022/07/02 02:33:44;;;;;;;3.30;0.93;;;;;;;10.73;100.00;97180.34;5015775;28;20037;-73
2022/07/02 02:36:09;;;;;;;3.65;1.00;;;;;;;10.84;100.00;97184.91;5034418;28;20262;-73
2022/07/02 02:38:36;;;;;;;3.63;1.30;;;;;;;10.92;100.00;97183.75;5049495;28;20033;-73
2022/07/02 02:41:06;;;;;;;5.22;1.15;;;;;;;10.97;100.00;97175.00;5032071;28;20036;-73
2022/07/02 02:43:36;;;;;;;5.43;1.02;;;;;;;10.96;100.00;97176.06;5054693;28;20470;-73
2022/07/02 02:46:03;;;;;;;2.85;1.10;;;;;;;10.87;100.00;97184.44;5037131;28;20021;-73
2022/07/02 02:48:29;;;;;;;2.88;1.20;;;;;;;10.90;100.00;97188.53;5036221;28;20433;-73
2022/07/02 02:50:55;;;;;;;4.22;0.95;;;;;;;10.87;100.00;97178.28;5032945;28;20068;-73
2022/07/02 02:53:21;;;;;;;3.10;0.90;;;;;;;10.79;100.00;97184.78;5034399;28;20032;-73
2022/07/02 02:55:46;;;;;;;3.22;1.00;;;;;;;10.69;100.00;97192.59;5033037;28;20705;-73
2022/07/02 02:58:12;;;;;;;5.00;1.23;;;;;;;10.48;100.00;97191.28;5036548;28;20073;-73
2022/07/02 03:00:37;;;;;;;3.95;1.30;;;;;;;10.48;100.00;97191.28;5034093;28;20035;-73
2022/07/02 03:03:03;;;;;;;6.05;1.15;;;;;;;10.57;100.00;97202.44;5034967;28;20353;-73
2022/07/02 03:05:28;;;;;;;5.30;1.10;;;;;;;10.60;100.00;97194.78;5035854;28;20380;-73
2022/07/02 03:07:54;;;;;;;3.50;1.00;;;;;;;10.66;100.00;97195.75;5033139;28;20756;-73
2022/07/02 03:10:19;;;;;;;3.22;0.95;;;;;;;10.62;100.00;97197.22;5032768;28;20492;-73
2022/07/02 03:12:45;;;;;;;2.88;0.98;;;;;;;10.63;100.00;97196.19;5035203;28;20342;-73
2022/07/02 03:15:10;;;;;;;2.45;1.10;;;;;;;10.68;100.00;97204.34;5035348;28;20102;-73
2022/07/02 03:17:36;;;;;;;3.78;1.30;;;;;;;10.74;100.00;97198.06;5038480;28;20045;-73
2022/07/02 03:20:02;;;;;;;2.75;1.10;;;;;;;10.76;100.00;97197.84;5036572;28;20449;-74
2022/07/02 03:22:28;;;;;;;2.50;1.10;;;;;;;10.72;100.00;97207.38;5038771;28;20573;-73
2022/07/02 03:24:53;;;;;;;3.92;1.45;;;;;;;10.43;100.00;97193.84;5037352;28;20025;-73
2022/07/02 03:27:19;;;;;;;4.47;2.00;;;;;;;10.32;100.00;97208.78;5037947;28;20037;-73
2022/07/02 03:29:46;;;;;;;4.93;2.13;;;;;;;10.38;100.00;97200.91;5037984;28;20025;-73
2022/07/02 03:32:12;;;;;;;4.60;1.80;;;;;;;10.49;100.00;97211.63;5037713;28;20064;-73
2022/07/02 03:34:40;;;;;;;3.97;1.42;;;;;;;10.45;100.00;97213.16;5035754;28;20035;-73
2022/07/02 03:37:05;;;;;;;5.15;1.42;;;;;;;10.49;100.00;97208.94;5035834;28;20419;-73
2022/07/02 03:39:31;;;;;;;4.03;1.40;;;;;;;10.54;100.00;97211.75;5035310;28;20063;-73
2022/07/02 03:41:56;;;;;;;8.23;1.52;;;;;;;10.62;100.00;97212.47;5035220;28;20110;-73
2022/07/02 03:44:22;;;;;;;2.92;1.20;;;;;;;10.67;100.00;97210.75;5035246;28;20075;-73
2022/07/02 03:46:47;;;;;;;3.85;1.20;;;;;;;10.69;100.00;97222.03;5036219;28;20199;-73
2022/07/02 03:49:13;;;;;;;3.35;0.90;;;;;;;10.65;100.00;97217.34;5032673;28;20048;-74
2022/07/02 03:51:38;;;;;;;5.93;1.10;;;;;;;10.69;100.00;97214.00;5037967;28;20107;-73
2022/07/02 03:54:04;;;;;;;3.22;1.10;;;;;;;10.73;100.00;97220.50;5037679;28;20037;-74
2022/07/02 03:56:30;;;;;;;2.55;1.10;;;;;;;10.70;100.00;97226.34;5036569;28;20044;-73
2022/07/02 03:58:55;;;;;;;5.68;1.15;;;;;;;10.74;100.00;97232.88;5036361;28;20077;-73
2022/07/02 04:01:20;;;;;;;5.68;1.02;;;;;;;10.79;100.00;97232.97;5037344;28;20105;-73
2022/07/02 04:03:46;;;;;;;4.00;1.17;;;;;;;10.82;100.00;97229.84;5037627;28;20044;-74
2022/07/02 04:06:11;;;;;;;4.28;1.42;;;;;;;10.77;100.00;97232.41;5052274;28;20104;-74
2022/07/02 04:08:37;;;;;;;2.20;0.90;;;;;;;10.83;100.00;97220.78;5036145;28;20067;-73
2022/07/02 04:11:02;;;;;;;3.63;1.17;;;;;;;10.72;100.00;97221.56;5038012;28;20041;-73
2022/07/02 04:13:29;;;;;;;6.57;1.20;;;;;;;10.66;100.00;97227.84;5036241;28;20087;-73
2022/07/02 04:15:55;;;;;;;5.47;1.02;;;;;;;10.74;100.00;97222.16;5036942;28;20037;-73
2022/07/02 04:18:20;;;;;;;2.53;0.82;;;;;;;10.75;100.00;97229.16;5035660;28;20070;-73
2022/07/02 04:20:46;;;;;;;2.38;1.00;;;;;;;10.74;100.00;97215.97;5036660;28;20059;-73
2022/07/02 04:23:14;;;;;;;4.78;1.30;;;;;;;10.86;100.00;97216.81;5035507;28;20052;-73
2022/07/02 04:25:39;;;;;;;5.43;1.30;;;;;;;10.95;100.00;97222.63;5034562;28;20032;-73
2022/07/02 04:28:07;;;;;;;2.40;1.10;;;;;;;11.01;100.00;97221.72;5032563;28;20033;-73
2022/07/02 04:30:33;;;;;;;4.28;1.13;;;;;;;11.06;100.00;97216.50;5035784;28;20071;-73
2022/07/02 04:32:58;;;;;;;5.32;1.65;;;;;;;11.01;100.00;97209.13;5039152;28;20065;-73
2022/07/02 04:35:24;;;;;;;7.05;1.60;;;;;;;11.08;100.00;97217.06;5035619;28;20331;-73
2022/07/02 04:37:49;;;;;;;8.07;1.55;;;;;;;11.10;100.00;97215.78;5035697;28;20029;-73
2022/07/02 04:40:15;;;;;;;4.65;1.67;;;;;;;11.12;100.00;97205.63;5021952;28;20395;-74
2022/07/02 04:42:40;;;;;;;4.25;1.33;;;;;;;11.19;100.00;97208.19;5007753;28;20339;-74
2022/07/02 04:45:06;;;;;;;4.05;1.45;;;;;;;11.29;100.00;97211.13;5039167;28;20047;-74
2022/07/02 04:47:32;;;;;;;2.60;1.20;;;;;;;11.38;100.00;97216.94;5038864;28;20520;-74
2022/07/02 04:49:58;;;;;;;4.07;1.30;;;;;;;11.44;100.00;97210.63;5019241;28;20036;-74
2022/07/02 04:52:24;;;;;;;2.90;1.20;;;;;;;11.53;100.00;97219.13;5035344;28;20037;-74
2022/07/02 04:54:50;;;;;;;3.45;1.30;;;;;;;11.58;100.00;97201.25;5040667;28;20033;-74
2022/07/02 04:57:15;;;;;;;7.57;1.58;;;;;;;11.71;100.00;97202.88;5051872;28;20174;-74
2022/07/02 04:59:44;;;;;;;5.22;1.40;;;;;;;11.84;100.00;97210.69;5047087;28;20040;-74
2022/07/02 05:02:10;;;;;;;5.95;1.60;;;;;;;11.90;100.00;97204.34;5032307;28;20043;-74
2022/07/02 05:04:36;;;;;;;2.78;1.15;;;;;;;11.99;100.00;97208.31;5038072;28;20045;-74
2022/07/02 05:07:01;;;;;;;4.78;1.20;;;;;;;12.05;100.00;97209.19;5022205;28;20047;-75
2022/07/02 05:09:27;;;;;;;4.57;1.17;;;;;;;12.14;100.00;97215.84;5037436;28;20029;-74
2022/07/02 05:11:52;;;;;;;6.07;1.40;;;;;;;12.24;100.00;97215.19;5036393;28;20130;-74
2022/07/02 05:14:18;;;;;;;2.30;1.10;;;;;;;12.34;100.00;97220.75;5016584;28;20638;-75
2022/07/02 05:16:43;;;;;;;3.03;1.23;;;;;;;12.42;100.00;97214.16;5051224;28;20060;-74
2022/07/02 05:19:09;;;;;;;3.63;1.27;;;;;;;12.50;100.00;97201.16;5049786;28;20571;-74
2022/07/02 05:21:36;;;;;;;5.10;1.23;;;;;;;12.66;100.00;97207.59;5038423;28;20029;-75
2022/07/02 05:24:01;;;;;;;3.03;1.00;;;;;;;12.79;100.00;97206.47;5036345;28;20041;-75
2022/07/02 05:26:28;;;;;;;3.40;1.08;;;;;;;12.90;100.00;97213.63;5033867;28;20400;-74
2022/07/02 05:28:54;;;;;;;3.63;1.00;;;;;;;13.02;100.00;97222.44;5050135;28;20731;-74
2022/07/02 05:31:20;;;;;;;3.10;0.90;;;;;;;13.14;100.00;97218.81;5031580;28;20025;-73
2022/07/02 05:33:45;;;;;;;5.15;1.27;;;;;;;13.25;100.00;97220.66;5049779;28;20043;-74
2022/07/02 05:36:10;;;;;;;4.28;1.00;;;;;;;13.37;100.00;97213.28;5035052;28;20102;-74
2022/07/02 05:38:36;;;;;;;3.58;0.80;;;;;;;13.46;100.00;97225.22;4988881;28;20034;-74
2022/07/02 05:41:02;;;;;;;3.03;1.00;;;;;;;13.53;100.00;97223.19;5052442;28;20033;-74
2022/07/02 05:43:27;;;;;;;2.22;0.98;;;;;;;13.60;100.00;97233.75;5037605;28;20064;-74
2022/07/02 05:45:53;;;;;;;4.80;1.20;;;;;;;13.66;100.00;97224.69;5021371;28;20031;-74
2022/07/02 05:48:19;;;;;;;5.53;1.55;;;;;;;13.76;100.00;97230.19;5033145;28;20037;-74
2022/07/02 05:50:44;;;;;;;2.25;0.90;;;;;;;13.82;100.00;97237.28;5018530;28;20051;-74
2022/07/02 05:53:10;;;;;;;3.60;1.00;;;;;;;13.87;100.00;97236.53;5052719;28;20265;-74
2022/07/02 05:55:35;;;;;;;3.30;1.10;;;;;;;13.96;100.00;97234.22;5037224;28;20033;-74
2022/07/02 05:58:01;;;;;;;2.97;0.98;;;;;;;14.05;100.00;97230.81;5031674;28;20619;-75
2022/07/02 06:00:26;;;;;;;2.90;1.00;;;;;;;14.14;100.00;97228.50;5036045;28;20029;-73
2022/07/02 06:02:52;;;;;;;4.78;1.05;;;;;;;14.27;100.00;97233.50;5022182;28;20436;-74
2022/07/02 06:08:02;;;;;;;3.03;1.13;;;;;;;14.54;100.00;97249.69;5038754;28;20041;-74
2022/07/02 06:10:27;;;;;;;4.50;1.17;;;;;;;14.62;100.00;97235.75;5038031;28;20392;-74
2022/07/02 06:12:53;;;;;;;5.38;1.13;;;;;;;14.71;100.00;97247.72;5036788;28;20036;-74
2022/07/02 06:15:19;;;;;;;2.05;0.82;;;;;;;14.79;100.00;97245.63;5034755;28;20378;-73
2022/07/02 06:17:46;;;;;;;4.68;1.20;;;;;;;14.83;100.00;97239.44;5035001;28;20069;-73
2022/07/02 06:20:13;;;;;;;3.83;1.15;;;;;;;14.88;100.00;97234.13;5033796;28;20039;-74
2022/07/02 06:22:39;;;;;;;4.25;0.95;;;;;;;14.94;100.00;97230.41;5053833;28;20113;-73
2022/07/02 06:25:06;;;;;;;3.35;0.90;;;;;;;14.97;100.00;97239.84;5033634;28;20042;-74
2022/07/02 06:27:34;;;;;;;2.92;1.13;;;;;;;14.99;100.00;97229.59;5037547;28;20472;-74
2022/07/02 06:30:09;;;;;;;5.70;1.00;;;;;;;15.03;100.00;97246.91;5034825;28;20110;-73
2022/07/02 06:32:36;;;;;;;2.75;0.90;;;;;;;15.12;100.00;97244.53;5037650;28;20573;-73
2022/07/02 06:35:02;;;;;;;3.17;1.35;;;;;;;15.19;100.00;97242.44;5035501;28;20323;-74
2022/07/02 06:37:28;;;;;;;2.92;1.20;;;;;;;15.23;100.00;97240.84;5034274;28;20488;-75
2022/07/02 06:39:53;;;;;;;4.03;1.30;;;;;;;15.26;100.00;97243.84;5034431;28;20332;-75
2022/07/02 06:42:19;;;;;;;5.10;1.17;;;;;;;15.38;100.00;97242.81;5033282;28;20309;-74
2022/07/02 06:44:47;;;;;;;2.40;1.10;;;;;;;15.43;100.00;97248.25;5035184;28;20221;-75
2022/07/02 06:47:13;;;;;;;2.70;0.93;;;;;;;15.42;100.00;97247.44;5013745;28;20045;-74
2022/07/02 06:49:39;;;;;;;3.40;1.23;;;;;;;15.52;100.00;97249.38;5038289;28;20021;-74
2022/07/02 06:52:05;;;;;;;3.63;1.20;;;;;;;15.59;100.00;97249.97;5053711;28;20040;-73
2022/07/02 06:54:31;;;;;;;2.95;1.00;;;;;;;15.59;100.00;97244.56;5037718;28;20029;-72
2022/07/02 06:56:57;;;;;;;7.47;1.02;;;;;;;15.70;100.00;97248.97;5038474;28;20048;-72
2022/07/02 06:59:22;;;;;;;4.45;1.10;;;;;;;15.70;100.00;97243.56;5035814;28;21281;-73
2022/07/02 07:01:48;;;;;;;3.80;0.88;;;;;;;15.79;100.00;97251.97;5022552;28;20048;-72
2022/07/02 07:04:14;;;;;;;3.33;1.10;;;;;;;15.91;100.00;97249.91;5035138;28;20036;-73
2022/07/02 07:06:42;;;;;;;2.83;1.13;;;;;;;15.96;100.00;97249.94;5037215;28;20037;-73
2022/07/02 07:09:09;;;;;;;4.65;1.38;;;;;;;15.97;100.00;97248.84;5037701;28;20029;-72
2022/07/02 07:11:35;;;;;;;2.63;1.08;;;;;;;16.05;100.00;97248.34;5039119;28;20356;-74
2022/07/02 07:14:00;;;;;;;3.25;1.00;;;;;;;16.09;100.00;97248.59;5037264;28;20040;-73
2022/07/02 07:16:26;;;;;;;5.40;1.08;;;;;;;16.16;100.00;97243.78;5037155;28;20128;-74
2022/07/02 07:19:07;;;;;;;5.80;0.90;;;;;;;16.20;100.00;97247.59;5042760;28;20430;-74
2022/07/02 07:21:34;;;;;;;4.50;1.00;;;;;;;16.30;100.00;97236.81;5039254;28;20532;-73
2022/07/02 07:24:00;;;;;;;2.08;1.00;;;;;;;16.33;100.00;97244.38;5056828;28;20029;-73
2022/07/02 07:26:25;;;;;;;3.15;1.02;;;;;;;16.38;100.00;97246.28;5038972;28;20036;-74
2022/07/02 07:28:51;;;;;;;2.22;0.77;;;;;;;16.41;100.00;97241.13;5060661;28;20036;-74
2022/07/02 07:31:20;;;;;;;3.08;1.00;;;;;;;16.46;100.00;97242.25;5048014;28;20559;-73
2022/07/02 07:33:57;;;;;;;2.97;1.10;;;;;;;16.41;100.00;97251.94;5058229;28;20029;-73
2022/07/02 07:36:24;;;;;;;4.28;0.90;;;;;;;16.40;100.00;97241.41;5040634;28;20051;-73
2022/07/02 07:38:50;;;;;;;3.13;0.90;;;;;;;16.37;100.00;97237.38;5059389;28;20474;-73
2022/07/02 07:41:17;;;;;;;2.08;0.73;;;;;;;16.43;100.00;97246.31;5035916;28;20131;-73
2022/07/02 07:43:43;;;;;;;5.32;0.98;;;;;;;16.49;100.00;97252.50;5038483;28;20519;-74
2022/07/02 07:46:08;;;;;;;3.30;1.00;;;;;;;16.58;100.00;97245.53;5055404;28;20041;-74
2022/07/02 07:48:34;;;;;;;2.65;0.85;;;;;;;16.56;100.00;97251.16;5011066;28;20099;-73
2022/07/02 07:51:00;;;;;;;2.00;0.80;;;;;;;16.63;100.00;97238.22;5023760;28;20033;-74
2022/07/02 07:53:26;;;;;;;4.05;0.95;;;;;;;16.66;100.00;97243.09;5021367;28;20025;-74
2022/07/02 07:55:53;;;;;;;4.90;0.70;;;;;;;16.72;100.00;97238.53;5019048;28;20037;-73
2022/07/02 07:58:19;;;;;;;3.38;0.70;;;;;;;16.89;100.00;97241.81;5024293;28;20045;-73
2022/07/02 08:00:47;;;;;;;2.28;0.85;;;;;;;16.95;100.00;97240.72;5036929;28;20202;-73
2022/07/02 08:03:14;;;;;;;2.45;0.90;;;;;;;16.99;100.00;97247.22;5041146;28;20075;-73
2022/07/02 08:05:40;;;;;;;2.38;0.80;;;;;;;17.14;100.00;97248.28;5019618;28;20041;-73
2022/07/02 08:08:09;;;;;;;5.35;0.60;;;;;;;17.06;100.00;97243.44;5027972;28;20021;-73
2022/07/02 08:10:35;;;;;;;5.80;0.80;;;;;;;17.06;100.00;97249.66;5008668;28;20033;-74
2022/07/02 08:13:01;;;;;;;3.70;0.70;;;;;;;17.21;100.00;97240.72;5022668;28;20124;-74
2022/07/02 08:15:27;;;;;;;1.98;0.70;;;;;;;17.14;100.00;97232.06;5040160;28;20135;-74
2022/07/02 08:17:53;;;;;;;3.42;1.00;;;;;;;17.27;100.00;97239.59;5037905;28;20049;-74
2022/07/02 08:20:19;;;;;;;4.82;1.02;;;;;;;17.34;100.00;97242.03;5022341;28;20025;-74
2022/07/02 08:22:46;;;;;;;2.05;0.70;;;;;;;17.55;100.00;97236.31;5038049;28;20036;-74
2022/07/02 08:25:13;;;;;;;4.43;0.90;;;;;;;17.54;100.00;97237.41;5036665;28;20443;-74
2022/07/02 08:27:42;;;;;;;1.23;0.50;;;;;;;17.57;100.00;97235.25;5057455;28;20124;-74
2022/07/02 08:30:09;;;;;;;2.90;0.82;;;;;;;17.53;100.00;97238.50;5040223;28;21937;-74
2022/07/02 08:32:34;;;;;;;2.92;0.90;;;;;;;17.65;100.00;97242.78;5025533;28;20025;-74
2022/07/02 08:35:00;;;;;;;6.88;1.33;;;;;;;17.71;100.00;97233.63;5041843;28;20251;-74
2022/07/02 08:37:26;;;;;;;2.30;0.90;;;;;;;17.75;100.00;97232.81;5010867;28;20029;-74
2022/07/02 08:39:52;;;;;;;2.83;0.80;;;;;;;17.77;100.00;97237.94;5011889;28;20036;-74
2022/07/02 08:42:25;;;;;;;3.40;1.10;;;;;;;17.87;100.00;97235.19;5039640;28;20134;-74
2022/07/02 08:44:52;;;;;;;5.25;0.90;;;;;;;17.90;100.00;97223.81;5042553;28;20086;-72
2022/07/02 08:47:19;;;;;;;4.45;0.93;;;;;;;18.02;100.00;97218.88;5043027;28;20044;-72
2022/07/02 08:49:47;;;;;;;3.60;0.73;;;;;;;18.04;100.00;97218.59;5043462;28;20033;-72
2022/07/02 08:52:16;;;;;;;5.03;0.82;;;;;;;18.10;100.00;97226.41;5062375;28;20033;-72
2022/07/02 08:54:42;;;;;;;3.17;0.75;;;;;;;18.21;100.00;97227.19;5024284;28;20068;-72
2022/07/02 08:57:11;;;;;;;4.20;0.95;;;;;;;18.29;100.00;97226.63;5028155;28;20051;-72
2022/07/02 08:59:38;;;;;;;3.47;0.80;;;;;;;18.37;97.89;97222.50;5045051;28;20037;-73
2022/07/02 09:02:06;;;;;;;4.22;0.68;;;;;;;18.31;93.32;97218.22;5048932;28;20021;-73
2022/07/02 09:04:39;;;;;;;;;;;;;;;18.43;88.44;97234.09;5046015;28;20042;-73
2022/07/02 09:07:06;;;;;;;2.15;0.70;;;;;;;18.42;88.71;97213.53;5039667;28;19928;-73
2022/07/02 09:09:33;;;;;;;4.18;0.82;;;;;;;18.33;90.19;97226.84;5023596;28;20040;-73
2022/07/02 09:11:59;;;;;;;3.40;0.70;;;;;;;18.42;89.80;97218.94;5037897;28;20042;-73
2022/07/02 09:14:25;;;;;;;5.30;0.73;;;;;;;18.62;91.35;97219.63;5035316;28;20032;-73
2022/07/02 09:16:51;;;;;;;5.07;0.77;;;;;;;18.76;91.16;97213.63;5037675;28;20496;-73
2022/07/02 09:19:17;;;;;;;3.47;0.80;;;;;;;18.85;97.20;97220.84;5054857;28;20029;-73
2022/07/02 09:21:49;;;;;;;2.50;0.75;;;;;;;18.96;89.99;97223.47;5039997;28;20036;-74
2022/07/02 09:24:25;;;;;;;3.20;0.73;;;;;;;18.90;87.47;97211.84;5042568;28;20032;-74
2022/07/02 09:27:05;;;;;;;6.50;1.23;;;;;;;18.96;88.01;97212.63;5004481;28;20044;-73
2022/07/02 09:30:10;;;;;;;2.40;0.82;;;;;;;19.23;92.12;97204.00;5026548;28;20195;-75
2022/07/02 09:32:41;;;;;;;4.10;0.80;;;;;;;19.37;88.61;97207.63;5029283;28;20234;-74
2022/07/02 09:35:07;;;;;;;3.42;0.82;;;;;;;19.27;84.47;97197.69;5042338;28;20025;-74
2022/07/02 09:37:33;;;;;;;3.03;0.85;;;;;;;19.42;90.94;97196.75;5038807;28;20420;-74
2022/07/02 09:40:02;;;;;;;1.75;0.80;;;;;;;19.57;86.40;97203.94;5010032;28;20079;-74
2022/07/02 09:42:33;;;;;;;1.88;0.55;;;;;;;19.38;84.25;97204.66;5021235;28;20055;-74
2022/07/02 09:45:01;;;;;;;2.30;0.70;;;;;;;19.34;80.83;97213.66;5023809;28;20499;-74
2022/07/02 09:47:33;;;;;;;5.07;0.73;;;;;;;19.51;84.12;97205.06;5022829;28;20064;-74
2022/07/02 09:50:11;;;;;;;4.15;0.88;;;;;;;19.97;85.95;97205.38;5021493;28;20086;-74
2022/07/02 09:52:49;;;;;;;2.45;0.70;;;;;;;20.06;81.90;97189.25;5054709;28;20044;-74
2022/07/02 09:55:32;;;;;;;4.25;0.80;;;;;;;20.10;77.40;97188.38;5021382;28;20040;-74
2022/07/02 09:58:02;;;;;;;3.53;1.10;;;;;;;20.14;95.02;97189.41;5024916;28;20087;-74
2022/07/02 10:00:31;;;;;;;1.77;0.60;;;;;;;20.14;79.65;97191.31;5016932;28;20940;-74
2022/07/02 10:02:59;;;;;;;4.38;0.82;;;;;;;20.31;87.22;97184.28;5038533;28;20132;-74
2022/07/02 10:05:27;;;;;;;1.63;0.60;;;;;;;20.82;89.80;97175.38;5035140;28;20698;-74
2022/07/02 10:07:55;;;;;;;3.25;0.73;;;;;;;20.84;76.99;97175.88;5036439;28;20135;-74
2022/07/02 10:10:36;;;;;;;2.78;0.73;;;;;;;20.75;88.48;97168.72;5018797;28;20029;-74
2022/07/02 10:13:02;;;;;;;2.00;0.80;;;;;;;20.82;80.66;97172.66;5025680;28;20044;-74
2022/07/02 10:15:30;;;;;;;4.07;0.70;;;;;;;20.76;87.75;97173.84;5022769;28;20017;-74
2022/07/02 10:17:56;;;;;;;4.47;0.90;;;;;;;19.81;85.40;97171.38;5040747;28;20072;-74
2022/07/02 10:20:23;;;;;;;3.22;0.90;;;;;;;19.95;88.65;97181.25;5019415;28;20495;-74
2022/07/02 10:22:52;;;;;;;7.78;1.00;;;;;;;20.38;85.54;97164.88;5043468;28;20145;-74
2022/07/02 10:25:19;;;;;;;2.13;0.80;;;;;;;20.92;83.16;97163.53;5027227;28;20056;-74
2022/07/02 10:27:48;;;;;;;3.35;0.90;;;;;;;20.76;83.13;97160.25;5044872;28;20037;-74
2022/07/02 10:30:21;;;;;;;3.05;0.82;;;;;;;20.93;82.16;97156.97;5044005;28;20029;-74
2022/07/02 10:32:52;;;;;;;2.60;0.90;;;;;;;21.39;86.21;97158.91;5027130;28;20033;-74
2022/07/02 10:35:18;;;;;;;;;;;;;;;21.48;86.12;97156.28;5040956;28;20035;-74
2022/07/02 10:37:45;;;;;;;2.95;1.58;;;;;;;21.93;79.27;97149.94;5024424;28;20282;-74
2022/07/02 10:40:17;;;;;;;6.97;1.30;;;;;;;21.89;72.85;97153.59;5016096;28;20125;-74
2022/07/02 10:42:47;;;;;;;2.38;0.75;;;;;;;22.03;72.46;97145.41;5011769;28;20018;-74
2022/07/02 10:45:23;;;;;;;4.97;0.88;;;;;;;21.89;80.13;97139.97;5039696;28;20041;-74
2022/07/02 10:47:58;;;;;;;3.47;1.02;;;;;;;21.97;82.71;97137.31;5044724;28;20821;-74
2022/07/02 10:50:40;;;;;;;5.70;0.80;;;;;;;21.40;75.38;97139.59;5039632;28;20521;-74
2022/07/02 10:53:21;;;;;;;8.10;1.10;;;;;;;21.82;73.63;97128.66;5027512;28;20044;-74
2022/07/02 10:55:52;;;;;;;3.15;0.90;;;;;;;21.67;78.99;97143.41;5036165;28;20041;-74
2022/07/02 10:58:23;;;;;;;8.85;1.00;;;;;;;22.00;85.66;97126.91;5019483;28;20045;-74
2022/07/02 11:00:50;;;;;;;3.75;0.90;;;;;;;22.25;77.94;97124.44;5043672;28;20036;-74
2022/07/02 11:03:23;;;;;;;2.78;1.00;;;;;;;22.01;67.27;97131.25;5043438;28;20421;-74
2022/07/02 11:06:19;;;;;;;5.45;0.80;;;;;;;22.21;62.35;97125.41;5018516;28;20039;-74
2022/07/02 11:08:46;;;;;;;2.40;0.90;;;;;;;22.30;73.33;97126.28;5055497;28;20048;-74
2022/07/02 11:11:18;;;;;;;6.15;1.10;;;;;;;22.53;76.81;97122.44;5024777;28;20492;-74
2022/07/02 11:13:54;;;;;;;3.33;0.90;;;;;;;22.91;76.35;97121.28;5061128;28;20040;-74
2022/07/02 11:16:23;;;;;;;1.77;0.80;;;;;;;22.96;80.11;97119.25;5039819;28;20080;-74
2022/07/02 11:18:50;;;;;;;3.42;0.70;;;;;;;23.12;66.99;97105.22;5042771;28;20294;-74
2022/07/02 11:21:17;;;;;;;2.67;0.85;;;;;;;23.38;72.11;97108.03;4992883;28;20045;-74
2022/07/02 11:23:44;;;;;;;3.20;0.82;;;;;;;23.24;73.64;97098.03;5036738;28;20147;-74
2022/07/02 11:26:22;;;;;;;3.28;0.93;;;;;;;24.10;70.64;97097.47;5040089;28;20035;-74
2022/07/02 11:28:48;;;;;;;5.13;0.90;;;;;;;24.45;57.96;97094.81;5058511;28;20030;-74
2022/07/02 11:31:14;;;;;;;4.93;0.82;;;;;;;25.03;57.21;97098.91;5022500;28;20565;-74
2022/07/02 11:33:48;;;;;;;7.15;1.02;;;;;;;25.89;56.29;97085.97;5041009;28;20485;-74